GLO1556 SBGR-SBFZ
Flight info
| Callsign | GLO1556 |
|---|---|
| Flight time | 2h 53m |
| Altitude | 35000 |
| Route | AMVU6A NUXEL UZ23 UTLEV UZ88 DOTKU |
| Aircraft | B738/M-SDE2E3FGHIRWXY/LB1 |
Departure
| Time | 2026-05-04 22:56 |
|---|---|
| Airport | São Paulo/Guarulhos–Governor André Franco Montoro International Airport (SBGR) |
Arrival
| Time | 2026-05-05 01:49 |
|---|---|
| Airport | Pinto Martins International Airport (SBFZ) |
| Time | Latitude | Longitude | Altitude | Speed | Heading |
|---|---|---|---|---|---|
| 2026-05-04 22:11 | -23.42873 | -46.48547 | 2467 ft | 0 kts | 275° |
| 2026-05-04 22:49 | -23.42874 | -46.48524 | 2467 ft | 4 kts | 267° |
| 2026-05-04 22:49 | -23.42870 | -46.48496 | 2467 ft | 4 kts | 246° |
| 2026-05-04 22:49 | -23.42856 | -46.48475 | 2470 ft | 4 kts | 198° |
| 2026-05-04 22:50 | -23.42845 | -46.48473 | 2467 ft | 1 kts | 180° |
| 2026-05-04 22:50 | -23.42844 | -46.48473 | 2467 ft | 0 kts | 180° |
| 2026-05-04 22:52 | -23.42846 | -46.48472 | 2467 ft | 2 kts | 178° |
| 2026-05-04 22:52 | -23.42880 | -46.48457 | 2467 ft | 7 kts | 156° |
| 2026-05-04 22:53 | -23.42934 | -46.48450 | 2472 ft | 9 kts | 179° |
| 2026-05-04 22:53 | -23.43003 | -46.48450 | 2467 ft | 11 kts | 179° |
| 2026-05-04 22:53 | -23.43083 | -46.48434 | 2469 ft | 12 kts | 163° |
| 2026-05-04 22:53 | -23.43164 | -46.48408 | 2470 ft | 12 kts | 163° |
| 2026-05-04 22:54 | -23.43242 | -46.48383 | 2470 ft | 12 kts | 163° |
| 2026-05-04 22:54 | -23.43319 | -46.48359 | 2470 ft | 11 kts | 165° |
| 2026-05-04 22:54 | -23.43393 | -46.48335 | 2469 ft | 11 kts | 148° |
| 2026-05-04 22:54 | -23.43408 | -46.48258 | 2468 ft | 11 kts | 77° |
| 2026-05-04 22:55 | -23.43369 | -46.48111 | 2469 ft | 45 kts | 73° |
| 2026-05-04 22:55 | -23.43213 | -46.47539 | 2467 ft | 112 kts | 73° |
| 2026-05-04 22:55 | -23.42938 | -46.46522 | 2473 ft | 166 kts | 73° |
| 2026-05-04 22:55 | -23.42586 | -46.45221 | 2853 ft | 184 kts | 74° |
| 2026-05-04 22:56 | -23.42215 | -46.43898 | 3687 ft | 178 kts | 73° |
| 2026-05-04 22:56 | -23.41831 | -46.42554 | 4066 ft | 203 kts | 71° |
| 2026-05-04 22:56 | -23.41376 | -46.41011 | 4245 ft | 226 kts | 71° |
| 2026-05-04 22:56 | -23.40874 | -46.39316 | 4503 ft | 244 kts | 71° |
| 2026-05-04 22:57 | -23.40332 | -46.37491 | 4866 ft | 261 kts | 70° |
| 2026-05-04 22:57 | -23.39678 | -46.35622 | 5480 ft | 268 kts | 59° |
| 2026-05-04 22:57 | -23.38682 | -46.33897 | 6206 ft | 271 kts | 54° |
| 2026-05-04 22:57 | -23.37646 | -46.32166 | 6891 ft | 276 kts | 54° |
| 2026-05-04 22:58 | -23.36600 | -46.30400 | 7592 ft | 279 kts | 55° |
| 2026-05-04 22:58 | -23.35552 | -46.28608 | 8305 ft | 282 kts | 55° |
| 2026-05-04 22:58 | -23.34500 | -46.26800 | 9042 ft | 285 kts | 56° |
| 2026-05-04 22:58 | -23.33451 | -46.24992 | 9750 ft | 288 kts | 56° |
| 2026-05-04 22:59 | -23.32378 | -46.23143 | 10426 ft | 291 kts | 56° |
| 2026-05-04 22:59 | -23.31260 | -46.21218 | 10663 ft | 313 kts | 56° |
| 2026-05-04 22:59 | -23.30065 | -46.19158 | 10998 ft | 328 kts | 57° |
| 2026-05-04 22:59 | -23.28836 | -46.17039 | 11582 ft | 334 kts | 57° |
| 2026-05-04 23:00 | -23.27590 | -46.14892 | 12271 ft | 336 kts | 57° |
| 2026-05-04 23:00 | -23.26338 | -46.12734 | 12935 ft | 340 kts | 57° |
| 2026-05-04 23:00 | -23.25067 | -46.10545 | 13569 ft | 344 kts | 58° |
| 2026-05-04 23:00 | -23.23781 | -46.08332 | 14180 ft | 349 kts | 58° |
| 2026-05-04 23:01 | -23.22481 | -46.06133 | 14738 ft | 353 kts | 53° |
| 2026-05-04 23:01 | -23.20694 | -46.04319 | 15259 ft | 355 kts | 28° |
| 2026-05-04 23:01 | -23.18413 | -46.03354 | 15861 ft | 353 kts | 9° |
| 2026-05-04 23:01 | -23.15997 | -46.02860 | 16479 ft | 354 kts | 7° |
| 2026-05-04 23:02 | -23.13551 | -46.02420 | 17041 ft | 358 kts | 6° |
| 2026-05-04 23:02 | -23.11080 | -46.01984 | 17602 ft | 362 kts | 6° |
| 2026-05-04 23:02 | -23.08588 | -46.01533 | 18159 ft | 365 kts | 6° |
| 2026-05-04 23:02 | -23.06070 | -46.01066 | 18708 ft | 368 kts | 6° |
| 2026-05-04 23:03 | -23.03569 | -46.00593 | 19174 ft | 372 kts | 6° |
| 2026-05-04 23:03 | -23.01009 | -46.00103 | 19654 ft | 376 kts | 6° |
| 2026-05-04 23:03 | -22.98421 | -45.99606 | 20129 ft | 379 kts | 6° |
| 2026-05-04 23:03 | -22.95811 | -45.99104 | 20632 ft | 382 kts | 6° |
| 2026-05-04 23:04 | -22.93181 | -45.98599 | 21103 ft | 386 kts | 6° |
| 2026-05-04 23:04 | -22.90522 | -45.98089 | 21579 ft | 390 kts | 6° |
| 2026-05-04 23:04 | -22.87845 | -45.97556 | 22050 ft | 393 kts | 8° |
| 2026-05-04 23:04 | -22.85159 | -45.96912 | 22482 ft | 398 kts | 9° |
| 2026-05-04 23:05 | -22.82494 | -45.96216 | 22933 ft | 401 kts | 10° |
| 2026-05-04 23:05 | -22.79775 | -45.95490 | 23402 ft | 404 kts | 10° |
| 2026-05-04 23:05 | -22.77034 | -45.94761 | 23826 ft | 407 kts | 10° |
| 2026-05-04 23:05 | -22.74273 | -45.94033 | 24198 ft | 410 kts | 10° |
| 2026-05-04 23:06 | -22.71488 | -45.93306 | 24580 ft | 412 kts | 9° |
| 2026-05-04 23:06 | -22.68691 | -45.92580 | 24958 ft | 415 kts | 9° |
| 2026-05-04 23:06 | -22.65874 | -45.91853 | 25318 ft | 418 kts | 9° |
| 2026-05-04 23:06 | -22.63014 | -45.91118 | 25408 ft | 429 kts | 9° |
| 2026-05-04 23:07 | -22.60072 | -45.90364 | 25477 ft | 439 kts | 9° |
| 2026-05-04 23:07 | -22.57103 | -45.89602 | 25540 ft | 449 kts | 9° |
| 2026-05-04 23:07 | -22.54036 | -45.88814 | 25647 ft | 457 kts | 9° |
| 2026-05-04 23:07 | -22.50933 | -45.88014 | 25937 ft | 459 kts | 9° |
| 2026-05-04 23:08 | -22.47821 | -45.87212 | 26310 ft | 460 kts | 9° |
| 2026-05-04 23:08 | -22.44704 | -45.86410 | 26632 ft | 461 kts | 9° |
| 2026-05-04 23:08 | -22.41569 | -45.85604 | 26891 ft | 465 kts | 9° |
| 2026-05-04 23:08 | -22.38413 | -45.84794 | 27165 ft | 468 kts | 9° |
| 2026-05-04 23:09 | -22.35239 | -45.83980 | 27455 ft | 470 kts | 9° |
| 2026-05-04 23:09 | -22.32054 | -45.83153 | 27718 ft | 473 kts | 11° |
| 2026-05-04 23:09 | -22.28960 | -45.81977 | 27942 ft | 483 kts | 20° |
| 2026-05-04 23:09 | -22.25980 | -45.80259 | 28214 ft | 489 kts | 30° |
| 2026-05-04 23:10 | -22.23236 | -45.78062 | 28501 ft | 493 kts | 36° |
| 2026-05-04 23:10 | -22.20562 | -45.75724 | 28767 ft | 496 kts | 37° |
| 2026-05-04 23:10 | -22.17891 | -45.73350 | 28994 ft | 499 kts | 37° |
| 2026-05-04 23:10 | -22.15204 | -45.70965 | 29228 ft | 502 kts | 36° |
| 2026-05-04 23:11 | -22.12494 | -45.68580 | 29463 ft | 504 kts | 36° |
| 2026-05-04 23:11 | -22.09765 | -45.66199 | 29720 ft | 506 kts | 36° |
| 2026-05-04 23:11 | -22.07019 | -45.63820 | 29951 ft | 508 kts | 36° |
| 2026-05-04 23:11 | -22.04288 | -45.61464 | 30148 ft | 510 kts | 36° |
| 2026-05-04 23:12 | -22.01505 | -45.59070 | 30295 ft | 514 kts | 35° |
| 2026-05-04 23:12 | -21.98699 | -45.56659 | 30466 ft | 517 kts | 35° |
| 2026-05-04 23:12 | -21.95892 | -45.54246 | 30760 ft | 516 kts | 35° |
| 2026-05-04 23:12 | -21.93097 | -45.51842 | 31109 ft | 513 kts | 35° |
| 2026-05-04 23:13 | -21.90312 | -45.49448 | 31456 ft | 511 kts | 35° |
| 2026-05-04 23:13 | -21.87539 | -45.47064 | 31763 ft | 510 kts | 35° |
| 2026-05-04 23:13 | -21.84770 | -45.44686 | 32030 ft | 509 kts | 35° |
| 2026-05-04 23:13 | -21.82040 | -45.42343 | 32297 ft | 509 kts | 35° |
| 2026-05-04 23:14 | -21.79271 | -45.39968 | 32601 ft | 508 kts | 35° |
| 2026-05-04 23:14 | -21.76516 | -45.37606 | 32910 ft | 506 kts | 35° |
| 2026-05-04 23:14 | -21.73765 | -45.35248 | 33218 ft | 505 kts | 35° |
| 2026-05-04 23:14 | -21.71020 | -45.32897 | 33454 ft | 504 kts | 34° |
| 2026-05-04 23:15 | -21.68273 | -45.30545 | 33709 ft | 504 kts | 34° |
| 2026-05-04 23:15 | -21.65532 | -45.28200 | 33987 ft | 503 kts | 34° |
| 2026-05-04 23:15 | -21.62799 | -45.25863 | 34266 ft | 502 kts | 34° |
| 2026-05-04 23:15 | -21.60074 | -45.23533 | 34482 ft | 501 kts | 34° |
| 2026-05-04 23:16 | -21.57380 | -45.21231 | 34644 ft | 502 kts | 34° |
| 2026-05-04 23:16 | -21.54640 | -45.18892 | 34814 ft | 503 kts | 34° |
| 2026-05-04 23:16 | -21.51904 | -45.16557 | 35010 ft | 502 kts | 34° |
| 2026-05-04 23:16 | -21.49171 | -45.14225 | 35217 ft | 502 kts | 34° |
| 2026-05-04 23:17 | -21.43674 | -45.09540 | 35207 ft | 504 kts | 34° |
| 2026-05-04 23:17 | -21.38197 | -45.04873 | 35187 ft | 501 kts | 34° |
| 2026-05-04 23:18 | -21.32794 | -45.00274 | 35211 ft | 498 kts | 34° |
| 2026-05-04 23:18 | -21.27378 | -44.95670 | 35208 ft | 496 kts | 34° |
| 2026-05-04 23:19 | -21.21979 | -44.91084 | 35212 ft | 495 kts | 34° |
| 2026-05-04 23:19 | -21.16578 | -44.86498 | 35207 ft | 495 kts | 34° |
| 2026-05-04 23:20 | -21.11180 | -44.81897 | 35222 ft | 497 kts | 34° |
| 2026-05-04 23:20 | -21.05793 | -44.77307 | 35223 ft | 499 kts | 34° |
| 2026-05-04 23:21 | -21.00235 | -44.72853 | 35231 ft | 499 kts | 30° |
| 2026-05-04 23:21 | -20.94530 | -44.68603 | 35228 ft | 501 kts | 30° |
| 2026-05-04 23:22 | -20.88825 | -44.64299 | 35232 ft | 503 kts | 31° |
| 2026-05-04 23:22 | -20.83161 | -44.59972 | 35246 ft | 504 kts | 31° |
| 2026-05-04 23:23 | -20.77450 | -44.55615 | 35221 ft | 504 kts | 30° |
| 2026-05-04 23:23 | -20.71744 | -44.51269 | 35231 ft | 503 kts | 30° |
| 2026-05-04 23:24 | -20.66047 | -44.46931 | 35241 ft | 502 kts | 30° |
| 2026-05-04 23:24 | -20.60365 | -44.42608 | 35213 ft | 501 kts | 30° |
| 2026-05-04 23:25 | -20.54743 | -44.38333 | 35239 ft | 498 kts | 30° |
| 2026-05-04 23:25 | -20.49103 | -44.34050 | 35238 ft | 497 kts | 30° |
| 2026-05-04 23:26 | -20.43470 | -44.29774 | 35235 ft | 496 kts | 31° |
| 2026-05-04 23:26 | -20.37917 | -44.25407 | 35226 ft | 496 kts | 32° |
| 2026-05-04 23:27 | -20.32442 | -44.21022 | 35238 ft | 495 kts | 32° |
| 2026-05-04 23:27 | -20.26920 | -44.16626 | 35237 ft | 495 kts | 32° |
| 2026-05-04 23:28 | -20.21393 | -44.12247 | 35229 ft | 495 kts | 32° |
| 2026-05-04 23:28 | -20.15864 | -44.07872 | 35234 ft | 495 kts | 32° |
| 2026-05-04 23:29 | -20.10216 | -44.03808 | 35236 ft | 488 kts | 20° |
| 2026-05-04 23:29 | -20.03912 | -44.01499 | 35252 ft | 473 kts | 3° |
| 2026-05-04 23:30 | -19.97427 | -44.00376 | 35253 ft | 472 kts | 2° |
| 2026-05-04 23:30 | -19.90931 | -43.99268 | 35259 ft | 473 kts | 2° |
| 2026-05-04 23:31 | -19.84467 | -43.98126 | 35267 ft | 475 kts | 3° |
| 2026-05-04 23:31 | -19.77948 | -43.96950 | 35257 ft | 476 kts | 3° |
| 2026-05-04 23:32 | -19.71422 | -43.95767 | 35259 ft | 476 kts | 3° |
| 2026-05-04 23:32 | -19.64887 | -43.94585 | 35267 ft | 476 kts | 3° |
| 2026-05-04 23:33 | -19.58396 | -43.93414 | 35263 ft | 476 kts | 3° |
| 2026-05-04 23:33 | -19.51865 | -43.92236 | 35254 ft | 476 kts | 3° |
| 2026-05-04 23:34 | -19.45338 | -43.91061 | 35244 ft | 476 kts | 3° |
| 2026-05-04 23:34 | -19.38813 | -43.89887 | 35235 ft | 475 kts | 3° |
| 2026-05-04 23:35 | -19.32289 | -43.88713 | 35205 ft | 475 kts | 3° |
| 2026-05-04 23:35 | -19.25783 | -43.87544 | 35208 ft | 474 kts | 3° |
| 2026-05-04 23:36 | -19.19320 | -43.86384 | 35211 ft | 474 kts | 3° |
| 2026-05-04 23:36 | -19.12815 | -43.85218 | 35208 ft | 474 kts | 3° |
| 2026-05-04 23:37 | -19.06332 | -43.84055 | 35208 ft | 472 kts | 4° |
| 2026-05-04 23:37 | -18.99857 | -43.82895 | 35216 ft | 472 kts | 4° |
| 2026-05-04 23:38 | -18.93430 | -43.81745 | 35223 ft | 472 kts | 4° |
| 2026-05-04 23:38 | -18.86960 | -43.80589 | 35223 ft | 471 kts | 4° |
| 2026-05-04 23:39 | -18.80491 | -43.79434 | 35224 ft | 472 kts | 4° |
| 2026-05-04 23:39 | -18.74014 | -43.78277 | 35226 ft | 472 kts | 4° |
| 2026-05-04 23:40 | -18.67583 | -43.77130 | 35219 ft | 472 kts | 4° |
| 2026-05-04 23:40 | -18.61109 | -43.75975 | 35211 ft | 472 kts | 4° |
| 2026-05-04 23:41 | -18.54643 | -43.74824 | 35235 ft | 471 kts | 4° |
| 2026-05-04 23:41 | -18.48171 | -43.73671 | 35232 ft | 472 kts | 4° |
| 2026-05-04 23:42 | -18.41738 | -43.72527 | 35239 ft | 472 kts | 4° |
| 2026-05-04 23:42 | -18.35258 | -43.71376 | 35225 ft | 473 kts | 4° |
| 2026-05-04 23:43 | -18.28777 | -43.70225 | 35239 ft | 473 kts | 4° |
| 2026-05-04 23:43 | -18.22288 | -43.69073 | 35238 ft | 473 kts | 4° |
| 2026-05-04 23:44 | -18.15797 | -43.67921 | 35233 ft | 473 kts | 4° |
| 2026-05-04 23:44 | -18.09364 | -43.66714 | 35230 ft | 475 kts | 8° |
| 2026-05-04 23:45 | -18.02972 | -43.64820 | 35231 ft | 478 kts | 12° |
| 2026-05-04 23:45 | -17.96609 | -43.62770 | 35236 ft | 478 kts | 12° |
| 2026-05-04 23:46 | -17.90241 | -43.60758 | 35222 ft | 478 kts | 12° |
| 2026-05-04 23:46 | -17.83912 | -43.58803 | 35232 ft | 477 kts | 11° |
| 2026-05-04 23:47 | -17.77543 | -43.56853 | 35236 ft | 477 kts | 11° |
| 2026-05-04 23:47 | -17.71169 | -43.54905 | 35223 ft | 477 kts | 11° |
| 2026-05-04 23:48 | -17.64789 | -43.52954 | 35206 ft | 477 kts | 11° |
| 2026-05-04 23:48 | -17.58460 | -43.51019 | 35217 ft | 477 kts | 12° |
| 2026-05-04 23:49 | -17.52084 | -43.49070 | 35222 ft | 477 kts | 11° |
| 2026-05-04 23:49 | -17.45709 | -43.47124 | 35214 ft | 477 kts | 11° |
| 2026-05-04 23:50 | -17.39331 | -43.45178 | 35204 ft | 477 kts | 11° |
| 2026-05-04 23:50 | -17.32957 | -43.43235 | 35205 ft | 477 kts | 11° |
| 2026-05-04 23:51 | -17.26628 | -43.41307 | 35227 ft | 477 kts | 11° |
| 2026-05-04 23:51 | -17.20254 | -43.39367 | 35199 ft | 477 kts | 11° |
| 2026-05-04 23:52 | -17.13885 | -43.37429 | 35216 ft | 477 kts | 11° |
| 2026-05-04 23:52 | -17.07518 | -43.35493 | 35220 ft | 477 kts | 11° |
| 2026-05-04 23:53 | -17.01183 | -43.33569 | 35212 ft | 477 kts | 11° |
| 2026-05-04 23:53 | -16.94802 | -43.31632 | 35207 ft | 477 kts | 11° |
| 2026-05-04 23:54 | -16.88424 | -43.29697 | 35213 ft | 477 kts | 11° |
| 2026-05-04 23:54 | -16.82047 | -43.27764 | 35225 ft | 477 kts | 11° |
| 2026-05-04 23:55 | -16.75706 | -43.25843 | 35208 ft | 478 kts | 11° |
| 2026-05-04 23:56 | -16.66127 | -43.22944 | 35221 ft | 478 kts | 11° |
| 2026-05-04 23:56 | -16.59735 | -43.21011 | 35211 ft | 479 kts | 11° |
| 2026-05-04 23:57 | -16.53380 | -43.19090 | 35212 ft | 479 kts | 12° |
| 2026-05-04 23:57 | -16.46972 | -43.17155 | 35210 ft | 479 kts | 11° |
| 2026-05-04 23:58 | -16.40570 | -43.15223 | 35215 ft | 479 kts | 11° |
| 2026-05-04 23:58 | -16.34165 | -43.13291 | 35215 ft | 479 kts | 11° |
| 2026-05-04 23:59 | -16.27800 | -43.11372 | 35195 ft | 479 kts | 12° |
| 2026-05-04 23:59 | -16.21394 | -43.09442 | 35202 ft | 479 kts | 12° |
| 2026-05-05 00:00 | -16.15004 | -43.07437 | 35201 ft | 481 kts | 14° |
| 2026-05-05 00:00 | -16.08682 | -43.05145 | 35200 ft | 481 kts | 15° |
| 2026-05-05 00:01 | -16.02367 | -43.02809 | 35191 ft | 482 kts | 15° |
| 2026-05-05 00:01 | -15.96084 | -43.00525 | 35194 ft | 482 kts | 15° |
| 2026-05-05 00:02 | -15.89741 | -42.98249 | 35196 ft | 482 kts | 14° |
| 2026-05-05 00:02 | -15.83393 | -42.95980 | 35188 ft | 483 kts | 14° |
| 2026-05-05 00:03 | -15.77036 | -42.93708 | 35179 ft | 483 kts | 15° |
| 2026-05-05 00:03 | -15.70723 | -42.91451 | 35194 ft | 483 kts | 15° |
| 2026-05-05 00:04 | -15.64365 | -42.89180 | 35185 ft | 483 kts | 15° |
| 2026-05-05 00:04 | -15.58002 | -42.86908 | 35188 ft | 484 kts | 15° |
| 2026-05-05 00:05 | -15.51638 | -42.84637 | 35190 ft | 484 kts | 15° |
| 2026-05-05 00:05 | -15.45317 | -42.82383 | 35195 ft | 484 kts | 15° |
| 2026-05-05 00:06 | -15.38949 | -42.80114 | 35187 ft | 484 kts | 15° |
| 2026-05-05 00:06 | -15.32583 | -42.77847 | 35197 ft | 484 kts | 15° |
| 2026-05-05 00:07 | -15.26212 | -42.75580 | 35180 ft | 483 kts | 15° |
| 2026-05-05 00:07 | -15.19910 | -42.73338 | 35199 ft | 482 kts | 15° |
| 2026-05-05 00:08 | -15.13561 | -42.71082 | 35195 ft | 483 kts | 15° |
| 2026-05-05 00:08 | -15.07199 | -42.68822 | 35181 ft | 483 kts | 15° |
| 2026-05-05 00:09 | -15.00834 | -42.66563 | 35177 ft | 484 kts | 15° |
| 2026-05-05 00:09 | -14.94460 | -42.64302 | 35184 ft | 484 kts | 15° |
| 2026-05-05 00:10 | -14.88133 | -42.62059 | 35186 ft | 484 kts | 15° |
| 2026-05-05 00:10 | -14.81750 | -42.59797 | 35175 ft | 485 kts | 15° |
| 2026-05-05 00:11 | -14.75362 | -42.57535 | 35177 ft | 485 kts | 15° |
| 2026-05-05 00:11 | -14.68973 | -42.55273 | 35177 ft | 485 kts | 15° |
| 2026-05-05 00:12 | -14.62634 | -42.53031 | 35176 ft | 485 kts | 15° |
| 2026-05-05 00:12 | -14.56255 | -42.50777 | 35170 ft | 485 kts | 15° |
| 2026-05-05 00:13 | -14.49866 | -42.48519 | 35169 ft | 485 kts | 15° |
| 2026-05-05 00:13 | -14.43471 | -42.46262 | 35167 ft | 486 kts | 15° |
| 2026-05-05 00:14 | -14.37111 | -42.44027 | 35164 ft | 486 kts | 15° |
| 2026-05-05 00:14 | -14.30707 | -42.41779 | 35164 ft | 486 kts | 16° |
| 2026-05-05 00:15 | -14.24303 | -42.39531 | 35174 ft | 486 kts | 16° |
| 2026-05-05 00:15 | -14.17896 | -42.37282 | 35167 ft | 487 kts | 16° |
| 2026-05-05 00:16 | -14.11485 | -42.35033 | 35166 ft | 486 kts | 16° |
| 2026-05-05 00:16 | -14.05125 | -42.32803 | 35159 ft | 486 kts | 16° |
| 2026-05-05 00:17 | -13.98721 | -42.30559 | 35157 ft | 486 kts | 16° |
| 2026-05-05 00:17 | -13.92332 | -42.28322 | 35161 ft | 485 kts | 16° |
| 2026-05-05 00:18 | -13.85946 | -42.26087 | 35162 ft | 484 kts | 16° |
| 2026-05-05 00:18 | -13.79611 | -42.23871 | 35170 ft | 484 kts | 16° |
| 2026-05-05 00:19 | -13.73238 | -42.21643 | 35158 ft | 484 kts | 16° |
| 2026-05-05 00:19 | -13.66859 | -42.19414 | 35159 ft | 484 kts | 16° |
| 2026-05-05 00:20 | -13.60491 | -42.17182 | 35151 ft | 483 kts | 16° |
| 2026-05-05 00:20 | -13.54183 | -42.14927 | 35156 ft | 483 kts | 17° |
| 2026-05-05 00:21 | -13.47834 | -42.12647 | 35153 ft | 483 kts | 17° |
| 2026-05-05 00:21 | -13.41478 | -42.10370 | 35159 ft | 483 kts | 17° |
| 2026-05-05 00:22 | -13.35127 | -42.08099 | 35164 ft | 484 kts | 17° |
| 2026-05-05 00:22 | -13.28775 | -42.05831 | 35159 ft | 484 kts | 17° |
| 2026-05-05 00:23 | -13.22459 | -42.03577 | 35166 ft | 483 kts | 17° |
| 2026-05-05 00:23 | -13.16101 | -42.01309 | 35173 ft | 484 kts | 17° |
| 2026-05-05 00:24 | -13.09741 | -41.99042 | 35161 ft | 484 kts | 17° |
| 2026-05-05 00:24 | -13.03425 | -41.96792 | 35179 ft | 484 kts | 17° |
| 2026-05-05 00:25 | -12.97073 | -41.94529 | 35161 ft | 483 kts | 17° |
| 2026-05-05 00:25 | -12.90725 | -41.92269 | 35177 ft | 482 kts | 17° |
| 2026-05-05 00:26 | -12.84386 | -41.90014 | 35169 ft | 482 kts | 17° |
| 2026-05-05 00:26 | -12.79127 | -41.88144 | 35173 ft | 481 kts | 17° |
| 2026-05-05 00:27 | -12.71787 | -41.85536 | 35178 ft | 480 kts | 17° |
| 2026-05-05 00:27 | -12.65479 | -41.83295 | 35183 ft | 479 kts | 17° |
| 2026-05-05 00:28 | -12.59175 | -41.81058 | 35168 ft | 480 kts | 17° |
| 2026-05-05 00:28 | -12.53938 | -41.79199 | 35172 ft | 479 kts | 17° |
| 2026-05-05 00:29 | -12.46611 | -41.76601 | 35168 ft | 480 kts | 17° |
| 2026-05-05 00:29 | -12.40301 | -41.74364 | 35168 ft | 480 kts | 17° |
| 2026-05-05 00:30 | -12.35054 | -41.72505 | 35167 ft | 480 kts | 17° |
| 2026-05-05 00:30 | -12.28742 | -41.70270 | 35167 ft | 480 kts | 17° |
| 2026-05-05 00:31 | -12.22431 | -41.68036 | 35150 ft | 480 kts | 17° |
| 2026-05-05 00:31 | -12.15091 | -41.65439 | 35156 ft | 480 kts | 17° |
| 2026-05-05 00:32 | -12.08769 | -41.63204 | 35147 ft | 481 kts | 17° |
| 2026-05-05 00:32 | -12.03512 | -41.61346 | 35146 ft | 481 kts | 17° |
| 2026-05-05 00:33 | -11.97189 | -41.59113 | 35152 ft | 481 kts | 17° |
| 2026-05-05 00:33 | -11.90861 | -41.56878 | 35142 ft | 481 kts | 17° |
| 2026-05-05 00:34 | -11.84532 | -41.54644 | 35151 ft | 481 kts | 17° |
| 2026-05-05 00:34 | -11.78241 | -41.52425 | 35138 ft | 481 kts | 17° |
| 2026-05-05 00:35 | -11.71912 | -41.50193 | 35144 ft | 481 kts | 17° |
| 2026-05-05 00:35 | -11.65548 | -41.48078 | 35144 ft | 481 kts | 15° |
| 2026-05-05 00:36 | -11.59141 | -41.46131 | 35142 ft | 481 kts | 15° |
| 2026-05-05 00:36 | -11.52776 | -41.44188 | 35142 ft | 481 kts | 15° |
| 2026-05-05 00:37 | -11.46373 | -41.42202 | 35147 ft | 481 kts | 15° |
| 2026-05-05 00:37 | -11.39978 | -41.40210 | 35146 ft | 481 kts | 15° |
| 2026-05-05 00:38 | -11.33577 | -41.38219 | 35147 ft | 481 kts | 15° |
| 2026-05-05 00:38 | -11.27176 | -41.36229 | 35138 ft | 481 kts | 15° |
| 2026-05-05 00:39 | -11.20825 | -41.34233 | 35142 ft | 481 kts | 16° |
| 2026-05-05 00:39 | -11.14472 | -41.32047 | 35139 ft | 482 kts | 17° |
| 2026-05-05 00:40 | -11.08123 | -41.29838 | 35137 ft | 482 kts | 17° |
| 2026-05-05 00:40 | -11.01773 | -41.27661 | 35132 ft | 482 kts | 17° |
| 2026-05-05 00:41 | -10.95459 | -41.25504 | 35135 ft | 481 kts | 17° |
| 2026-05-05 00:41 | -10.89114 | -41.23337 | 35130 ft | 481 kts | 17° |
| 2026-05-05 00:42 | -10.82767 | -41.21169 | 35134 ft | 481 kts | 17° |
| 2026-05-05 00:42 | -10.76421 | -41.19001 | 35137 ft | 481 kts | 17° |
| 2026-05-05 00:43 | -10.70118 | -41.16849 | 35132 ft | 481 kts | 17° |
| 2026-05-05 00:43 | -10.63773 | -41.14684 | 35134 ft | 481 kts | 17° |
| 2026-05-05 00:44 | -10.57424 | -41.12518 | 35137 ft | 481 kts | 17° |
| 2026-05-05 00:44 | -10.51085 | -41.10357 | 35137 ft | 481 kts | 17° |
| 2026-05-05 00:45 | -10.44746 | -41.08196 | 35136 ft | 480 kts | 17° |
| 2026-05-05 00:45 | -10.38453 | -41.06048 | 35136 ft | 480 kts | 17° |
| 2026-05-05 00:46 | -10.32120 | -41.03879 | 35133 ft | 480 kts | 17° |
| 2026-05-05 00:46 | -10.25791 | -41.01712 | 35126 ft | 480 kts | 17° |
| 2026-05-05 00:47 | -10.19449 | -40.99542 | 35121 ft | 481 kts | 17° |
| 2026-05-05 00:47 | -10.13143 | -40.97385 | 35132 ft | 482 kts | 17° |
| 2026-05-05 00:48 | -10.06789 | -40.95213 | 35131 ft | 482 kts | 17° |
| 2026-05-05 00:48 | -10.00422 | -40.93046 | 35110 ft | 483 kts | 17° |
| 2026-05-05 00:49 | -9.94044 | -40.90891 | 35114 ft | 483 kts | 17° |
| 2026-05-05 00:49 | -9.87715 | -40.88753 | 35103 ft | 483 kts | 17° |
| 2026-05-05 00:50 | -9.81350 | -40.86600 | 35100 ft | 482 kts | 17° |
| 2026-05-05 00:50 | -9.75001 | -40.84453 | 35098 ft | 481 kts | 17° |
| 2026-05-05 00:51 | -9.68661 | -40.82310 | 35098 ft | 480 kts | 17° |
| 2026-05-05 00:51 | -9.62374 | -40.80186 | 35097 ft | 479 kts | 17° |
| 2026-05-05 00:52 | -9.56057 | -40.78053 | 35093 ft | 478 kts | 17° |
| 2026-05-05 00:52 | -9.49747 | -40.75922 | 35097 ft | 478 kts | 17° |
| 2026-05-05 00:53 | -9.43448 | -40.73793 | 35100 ft | 477 kts | 17° |
| 2026-05-05 00:53 | -9.37153 | -40.71659 | 35096 ft | 477 kts | 17° |
| 2026-05-05 00:54 | -9.30909 | -40.69541 | 35103 ft | 477 kts | 17° |
| 2026-05-05 00:54 | -9.24618 | -40.67410 | 35100 ft | 477 kts | 17° |
| 2026-05-05 00:55 | -9.18321 | -40.65277 | 35094 ft | 477 kts | 17° |
| 2026-05-05 00:55 | -9.12026 | -40.63147 | 35085 ft | 477 kts | 17° |
| 2026-05-05 00:56 | -9.05764 | -40.61028 | 35081 ft | 478 kts | 17° |
| 2026-05-05 00:56 | -8.99451 | -40.58892 | 35087 ft | 478 kts | 17° |
| 2026-05-05 00:57 | -8.93144 | -40.56760 | 35085 ft | 479 kts | 17° |
| 2026-05-05 00:57 | -8.86824 | -40.54624 | 35087 ft | 479 kts | 17° |
| 2026-05-05 00:58 | -8.80544 | -40.52502 | 35088 ft | 479 kts | 17° |
| 2026-05-05 00:58 | -8.74219 | -40.50366 | 35090 ft | 479 kts | 17° |
| 2026-05-05 00:59 | -8.67900 | -40.48232 | 35088 ft | 479 kts | 17° |
| 2026-05-05 00:59 | -8.61573 | -40.46097 | 35091 ft | 479 kts | 17° |
| 2026-05-05 01:00 | -8.55253 | -40.43964 | 35085 ft | 479 kts | 17° |
| 2026-05-05 01:00 | -8.48980 | -40.41848 | 35086 ft | 478 kts | 17° |
| 2026-05-05 01:01 | -8.42672 | -40.39721 | 35091 ft | 478 kts | 17° |
| 2026-05-05 01:01 | -8.36365 | -40.37596 | 35084 ft | 478 kts | 17° |
| 2026-05-05 01:02 | -8.30068 | -40.35474 | 35082 ft | 477 kts | 17° |
| 2026-05-05 01:02 | -8.23819 | -40.33369 | 35089 ft | 476 kts | 17° |
| 2026-05-05 01:03 | -8.17532 | -40.31252 | 35084 ft | 476 kts | 17° |
| 2026-05-05 01:03 | -8.11250 | -40.29138 | 35077 ft | 476 kts | 17° |
| 2026-05-05 01:04 | -8.04977 | -40.27027 | 35075 ft | 475 kts | 17° |
| 2026-05-05 01:04 | -7.95611 | -40.23877 | 35076 ft | 475 kts | 17° |
| 2026-05-05 01:05 | -7.89338 | -40.21768 | 35074 ft | 475 kts | 17° |
| 2026-05-05 01:05 | -7.83073 | -40.19662 | 35082 ft | 475 kts | 17° |
| 2026-05-05 01:06 | -7.76795 | -40.17552 | 35078 ft | 475 kts | 17° |
| 2026-05-05 01:06 | -7.70520 | -40.15444 | 35077 ft | 476 kts | 17° |
| 2026-05-05 01:07 | -7.64283 | -40.13349 | 35086 ft | 476 kts | 17° |
| 2026-05-05 01:07 | -7.57996 | -40.11238 | 35079 ft | 476 kts | 17° |
| 2026-05-05 01:08 | -7.51706 | -40.09127 | 35086 ft | 477 kts | 17° |
| 2026-05-05 01:08 | -7.45411 | -40.07016 | 35079 ft | 477 kts | 17° |
| 2026-05-05 01:09 | -7.39108 | -40.04901 | 35085 ft | 477 kts | 17° |
| 2026-05-05 01:09 | -7.32847 | -40.02801 | 35077 ft | 478 kts | 17° |
| 2026-05-05 01:10 | -7.26538 | -40.00685 | 35070 ft | 478 kts | 16° |
| 2026-05-05 01:10 | -7.20221 | -39.98567 | 35076 ft | 478 kts | 16° |
| 2026-05-05 01:11 | -7.13908 | -39.96451 | 35072 ft | 479 kts | 16° |
| 2026-05-05 01:11 | -7.07630 | -39.94348 | 35063 ft | 479 kts | 16° |
| 2026-05-05 01:12 | -7.01306 | -39.92229 | 35066 ft | 479 kts | 16° |
| 2026-05-05 01:12 | -6.94979 | -39.90110 | 35062 ft | 479 kts | 16° |
| 2026-05-05 01:13 | -6.88649 | -39.87990 | 35051 ft | 479 kts | 16° |
| 2026-05-05 01:13 | -6.82325 | -39.85875 | 35056 ft | 479 kts | 16° |
| 2026-05-05 01:14 | -6.76039 | -39.83784 | 35043 ft | 479 kts | 16° |
| 2026-05-05 01:14 | -6.69706 | -39.81680 | 35044 ft | 479 kts | 16° |
| 2026-05-05 01:15 | -6.63378 | -39.79577 | 35036 ft | 479 kts | 16° |
| 2026-05-05 01:15 | -6.57052 | -39.77473 | 35041 ft | 479 kts | 16° |
| 2026-05-05 01:16 | -6.50771 | -39.75385 | 35036 ft | 478 kts | 16° |
| 2026-05-05 01:16 | -6.44457 | -39.73287 | 35032 ft | 478 kts | 16° |
| 2026-05-05 01:17 | -6.38148 | -39.71191 | 35040 ft | 477 kts | 16° |
| 2026-05-05 01:17 | -6.31840 | -39.69095 | 35031 ft | 477 kts | 16° |
| 2026-05-05 01:18 | -6.25581 | -39.67016 | 35035 ft | 477 kts | 16° |
| 2026-05-05 01:18 | -6.19277 | -39.64923 | 35028 ft | 477 kts | 16° |
| 2026-05-05 01:19 | -6.12976 | -39.62829 | 35027 ft | 477 kts | 16° |
| 2026-05-05 01:19 | -6.06679 | -39.60730 | 35026 ft | 477 kts | 16° |
| 2026-05-05 01:20 | -6.00424 | -39.58643 | 35025 ft | 477 kts | 16° |
| 2026-05-05 01:20 | -5.94126 | -39.56542 | 35016 ft | 477 kts | 16° |
| 2026-05-05 01:21 | -5.87824 | -39.54442 | 35024 ft | 477 kts | 16° |
| 2026-05-05 01:21 | -5.81502 | -39.52335 | 34652 ft | 480 kts | 17° |
| 2026-05-05 01:22 | -5.78343 | -39.51283 | 34276 ft | 475 kts | 17° |
| 2026-05-05 01:22 | -5.75217 | -39.50241 | 33841 ft | 472 kts | 17° |
| 2026-05-05 01:22 | -5.72154 | -39.49220 | 33385 ft | 469 kts | 17° |
| 2026-05-05 01:22 | -5.69075 | -39.48194 | 32940 ft | 465 kts | 17° |
| 2026-05-05 01:23 | -5.66014 | -39.47174 | 32512 ft | 462 kts | 17° |
| 2026-05-05 01:23 | -5.62976 | -39.46163 | 32083 ft | 458 kts | 17° |
| 2026-05-05 01:23 | -5.59961 | -39.45159 | 31664 ft | 455 kts | 17° |
| 2026-05-05 01:23 | -5.56968 | -39.44163 | 31252 ft | 452 kts | 17° |
| 2026-05-05 01:24 | -5.53989 | -39.43171 | 30825 ft | 449 kts | 17° |
| 2026-05-05 01:24 | -5.51032 | -39.42187 | 30405 ft | 447 kts | 17° |
| 2026-05-05 01:24 | -5.48088 | -39.41207 | 29981 ft | 444 kts | 17° |
| 2026-05-05 01:24 | -5.45165 | -39.40235 | 29507 ft | 441 kts | 17° |
| 2026-05-05 01:25 | -5.42301 | -39.39282 | 29069 ft | 437 kts | 18° |
| 2026-05-05 01:25 | -5.39427 | -39.38326 | 28630 ft | 433 kts | 18° |
| 2026-05-05 01:25 | -5.36576 | -39.37378 | 28202 ft | 430 kts | 18° |
| 2026-05-05 01:25 | -5.33750 | -39.36438 | 27791 ft | 426 kts | 18° |
| 2026-05-05 01:26 | -5.30953 | -39.35507 | 27383 ft | 422 kts | 18° |
| 2026-05-05 01:26 | -5.28177 | -39.34584 | 26971 ft | 418 kts | 18° |
| 2026-05-05 01:26 | -5.25426 | -39.33669 | 26569 ft | 415 kts | 18° |
| 2026-05-05 01:26 | -5.22694 | -39.32761 | 26166 ft | 412 kts | 18° |
| 2026-05-05 01:27 | -5.19985 | -39.31861 | 25770 ft | 409 kts | 18° |
| 2026-05-05 01:27 | -5.17333 | -39.30979 | 25384 ft | 406 kts | 18° |
| 2026-05-05 01:27 | -5.14661 | -39.30091 | 24984 ft | 403 kts | 19° |
| 2026-05-05 01:27 | -5.12007 | -39.29209 | 24581 ft | 401 kts | 19° |
| 2026-05-05 01:28 | -5.09365 | -39.28331 | 24183 ft | 399 kts | 19° |
| 2026-05-05 01:28 | -5.06740 | -39.27458 | 23798 ft | 396 kts | 19° |
| 2026-05-05 01:28 | -5.04130 | -39.26591 | 23343 ft | 394 kts | 19° |
| 2026-05-05 01:28 | -5.01536 | -39.25729 | 22922 ft | 391 kts | 19° |
| 2026-05-05 01:29 | -4.99001 | -39.24887 | 22520 ft | 387 kts | 19° |
| 2026-05-05 01:29 | -4.96454 | -39.24041 | 22127 ft | 384 kts | 19° |
| 2026-05-05 01:29 | -4.93930 | -39.23202 | 21749 ft | 380 kts | 19° |
| 2026-05-05 01:29 | -4.91430 | -39.22372 | 21370 ft | 377 kts | 19° |
| 2026-05-05 01:30 | -4.88957 | -39.21550 | 20997 ft | 373 kts | 19° |
| 2026-05-05 01:30 | -4.86502 | -39.20735 | 20624 ft | 370 kts | 19° |
| 2026-05-05 01:30 | -4.84065 | -39.19925 | 20258 ft | 367 kts | 20° |
| 2026-05-05 01:30 | -4.81648 | -39.19123 | 19892 ft | 365 kts | 20° |
| 2026-05-05 01:31 | -4.79248 | -39.18326 | 19524 ft | 362 kts | 20° |
| 2026-05-05 01:31 | -4.76897 | -39.17545 | 19173 ft | 360 kts | 20° |
| 2026-05-05 01:31 | -4.74529 | -39.16759 | 18816 ft | 358 kts | 20° |
| 2026-05-05 01:31 | -4.72173 | -39.15976 | 18455 ft | 356 kts | 20° |
| 2026-05-05 01:32 | -4.69833 | -39.15199 | 18065 ft | 354 kts | 20° |
| 2026-05-05 01:32 | -4.67505 | -39.14426 | 17664 ft | 351 kts | 20° |
| 2026-05-05 01:32 | -4.65191 | -39.13658 | 17286 ft | 349 kts | 20° |
| 2026-05-05 01:32 | -4.62900 | -39.12897 | 16928 ft | 346 kts | 20° |
| 2026-05-05 01:33 | -4.60625 | -39.12143 | 16567 ft | 343 kts | 20° |
| 2026-05-05 01:33 | -4.58376 | -39.11398 | 16278 ft | 338 kts | 20° |
| 2026-05-05 01:33 | -4.56187 | -39.10676 | 16040 ft | 332 kts | 20° |
| 2026-05-05 01:33 | -4.54008 | -39.09958 | 15795 ft | 328 kts | 20° |
| 2026-05-05 01:34 | -4.51848 | -39.09245 | 15550 ft | 326 kts | 20° |
| 2026-05-05 01:34 | -4.49705 | -39.08538 | 15310 ft | 322 kts | 20° |
| 2026-05-05 01:34 | -4.47581 | -39.07837 | 15007 ft | 320 kts | 20° |
| 2026-05-05 01:34 | -4.45470 | -39.07139 | 14686 ft | 319 kts | 20° |
| 2026-05-05 01:35 | -4.43367 | -39.06445 | 14361 ft | 318 kts | 20° |
| 2026-05-05 01:35 | -4.41265 | -39.05752 | 14002 ft | 318 kts | 20° |
| 2026-05-05 01:35 | -4.39193 | -39.04990 | 13645 ft | 317 kts | 27° |
| 2026-05-05 01:35 | -4.37237 | -39.03982 | 13262 ft | 316 kts | 31° |
| 2026-05-05 01:36 | -4.35333 | -39.02893 | 12907 ft | 314 kts | 32° |
| 2026-05-05 01:36 | -4.33474 | -39.01808 | 12568 ft | 313 kts | 32° |
| 2026-05-05 01:36 | -4.31596 | -39.00718 | 12226 ft | 312 kts | 32° |
| 2026-05-05 01:36 | -4.29718 | -38.99638 | 11890 ft | 310 kts | 32° |
| 2026-05-05 01:37 | -4.27846 | -38.98569 | 11545 ft | 309 kts | 32° |
| 2026-05-05 01:37 | -4.25980 | -38.97511 | 11214 ft | 307 kts | 32° |
| 2026-05-05 01:37 | -4.24124 | -38.96462 | 10894 ft | 306 kts | 32° |
| 2026-05-05 01:37 | -4.22267 | -38.95417 | 10561 ft | 305 kts | 32° |
| 2026-05-05 01:38 | -4.20427 | -38.94383 | 10377 ft | 299 kts | 31° |
| 2026-05-05 01:38 | -4.18653 | -38.93387 | 10217 ft | 293 kts | 31° |
| 2026-05-05 01:38 | -4.16899 | -38.92403 | 10101 ft | 285 kts | 32° |
| 2026-05-05 01:38 | -4.15182 | -38.91439 | 9870 ft | 282 kts | 32° |
| 2026-05-05 01:39 | -4.13468 | -38.90477 | 9568 ft | 282 kts | 32° |
| 2026-05-05 01:39 | -4.11764 | -38.89521 | 9258 ft | 280 kts | 32° |
| 2026-05-05 01:39 | -4.10078 | -38.88575 | 8977 ft | 278 kts | 32° |
| 2026-05-05 01:39 | -4.08398 | -38.87633 | 8710 ft | 276 kts | 32° |
| 2026-05-05 01:40 | -4.06723 | -38.86693 | 8407 ft | 276 kts | 32° |
| 2026-05-05 01:40 | -4.05052 | -38.85755 | 8126 ft | 275 kts | 32° |
| 2026-05-05 01:40 | -4.03381 | -38.84818 | 7831 ft | 275 kts | 33° |
| 2026-05-05 01:40 | -4.01737 | -38.83896 | 7548 ft | 274 kts | 33° |
| 2026-05-05 01:41 | -4.00069 | -38.82961 | 7253 ft | 274 kts | 33° |
| 2026-05-05 01:41 | -3.98403 | -38.82026 | 6968 ft | 275 kts | 33° |
| 2026-05-05 01:41 | -3.96732 | -38.81089 | 6597 ft | 276 kts | 33° |
| 2026-05-05 01:41 | -3.95054 | -38.80148 | 6199 ft | 276 kts | 33° |
| 2026-05-05 01:42 | -3.93378 | -38.79208 | 5808 ft | 276 kts | 33° |
| 2026-05-05 01:42 | -3.91706 | -38.78271 | 5415 ft | 276 kts | 33° |
| 2026-05-05 01:42 | -3.90059 | -38.77347 | 5035 ft | 275 kts | 33° |
| 2026-05-05 01:42 | -3.88396 | -38.76415 | 4673 ft | 273 kts | 33° |
| 2026-05-05 01:43 | -3.86764 | -38.75501 | 4498 ft | 264 kts | 33° |
| 2026-05-05 01:43 | -3.85189 | -38.74620 | 4310 ft | 256 kts | 33° |
| 2026-05-05 01:43 | -3.83658 | -38.73763 | 4142 ft | 247 kts | 33° |
| 2026-05-05 01:43 | -3.82184 | -38.72962 | 3987 ft | 236 kts | 28° |
| 2026-05-05 01:44 | -3.80638 | -38.72495 | 3789 ft | 228 kts | 17° |
| 2026-05-05 01:44 | -3.79135 | -38.72123 | 3609 ft | 217 kts | 18° |
| 2026-05-05 01:44 | -3.77731 | -38.71753 | 3447 ft | 207 kts | 19° |
| 2026-05-05 01:44 | -3.76370 | -38.71388 | 3285 ft | 199 kts | 19° |
| 2026-05-05 01:45 | -3.75072 | -38.71024 | 3160 ft | 191 kts | 25° |
| 2026-05-05 01:45 | -3.74065 | -38.70237 | 3048 ft | 183 kts | 60° |
| 2026-05-05 01:45 | -3.73703 | -38.69094 | 2852 ft | 167 kts | 101° |
| 2026-05-05 01:45 | -3.73895 | -38.67976 | 2691 ft | 162 kts | 98° |
| 2026-05-05 01:46 | -3.74031 | -38.66901 | 2494 ft | 151 kts | 104° |
| 2026-05-05 01:46 | -3.74270 | -38.65907 | 2318 ft | 149 kts | 106° |
| 2026-05-05 01:46 | -3.74534 | -38.64901 | 2127 ft | 151 kts | 107° |
| 2026-05-05 01:46 | -3.74804 | -38.63884 | 1928 ft | 150 kts | 106° |
| 2026-05-05 01:47 | -3.75066 | -38.62897 | 1731 ft | 145 kts | 105° |
| 2026-05-05 01:47 | -3.75323 | -38.61930 | 1567 ft | 145 kts | 105° |
| 2026-05-05 01:47 | -3.75586 | -38.60943 | 1366 ft | 147 kts | 105° |
| 2026-05-05 01:47 | -3.75845 | -38.59966 | 1176 ft | 145 kts | 105° |
| 2026-05-05 01:48 | -3.76105 | -38.58989 | 994 ft | 144 kts | 106° |
| 2026-05-05 01:48 | -3.76367 | -38.58019 | 844 ft | 145 kts | 106° |
| 2026-05-05 01:48 | -3.76625 | -38.57037 | 654 ft | 147 kts | 105° |
| 2026-05-05 01:48 | -3.76881 | -38.56051 | 451 ft | 149 kts | 106° |
| 2026-05-05 01:49 | -3.77147 | -38.55054 | 244 ft | 147 kts | 106° |
| 2026-05-05 01:49 | -3.77412 | -38.54085 | 87 ft | 137 kts | 104° |
| 2026-05-05 01:49 | -3.77596 | -38.53396 | 84 ft | 70 kts | 105° |
| 2026-05-05 01:49 | -3.77667 | -38.53128 | 82 ft | 35 kts | 105° |
| 2026-05-05 01:50 | -3.77728 | -38.52908 | 87 ft | 31 kts | 105° |
| 2026-05-05 01:50 | -3.77780 | -38.52708 | 81 ft | 27 kts | 105° |
| 2026-05-05 01:50 | -3.77799 | -38.52641 | 83 ft | 8 kts | 108° |
| 2026-05-05 01:50 | -3.77848 | -38.52636 | 81 ft | 9 kts | 213° |
| 2026-05-05 01:51 | -3.77876 | -38.52674 | 84 ft | 6 kts | 242° |
| 2026-05-05 01:51 | -3.77902 | -38.52724 | 81 ft | 10 kts | 245° |
| 2026-05-05 01:51 | -3.77913 | -38.52801 | 82 ft | 13 kts | 284° |
| 2026-05-05 01:51 | -3.77885 | -38.52904 | 81 ft | 17 kts | 284° |
| 2026-05-05 01:52 | -3.77856 | -38.53014 | 81 ft | 16 kts | 285° |
| 2026-05-05 01:52 | -3.77827 | -38.53125 | 81 ft | 16 kts | 285° |
| 2026-05-05 01:52 | -3.77797 | -38.53237 | 82 ft | 17 kts | 285° |
| 2026-05-05 01:52 | -3.77768 | -38.53346 | 86 ft | 16 kts | 285° |
| 2026-05-05 01:53 | -3.77740 | -38.53449 | 83 ft | 15 kts | 285° |
| 2026-05-05 01:53 | -3.77713 | -38.53552 | 81 ft | 15 kts | 285° |
| 2026-05-05 01:53 | -3.77688 | -38.53646 | 82 ft | 14 kts | 285° |
| 2026-05-05 01:53 | -3.77665 | -38.53735 | 84 ft | 11 kts | 282° |
| 2026-05-05 01:54 | -3.77688 | -38.53802 | 85 ft | 10 kts | 239° |
| 2026-05-05 01:54 | -3.77721 | -38.53854 | 82 ft | 9 kts | 237° |
| 2026-05-05 01:54 | -3.77725 | -38.53915 | 82 ft | 9 kts | 284° |
| 2026-05-05 01:54 | -3.77708 | -38.53975 | 85 ft | 10 kts | 285° |
| 2026-05-05 01:55 | -3.77691 | -38.54038 | 84 ft | 9 kts | 285° |
| 2026-05-05 01:55 | -3.77687 | -38.54070 | 81 ft | 5 kts | 256° |
| 2026-05-05 01:55 | -3.77717 | -38.54090 | 83 ft | 6 kts | 203° |
| 2026-05-05 01:55 | -3.77752 | -38.54104 | 81 ft | 5 kts | 202° |
| 2026-05-05 01:56 | -3.77767 | -38.54110 | 85 ft | 0 kts | 201° |